Time;durP1;ratioP1;P1;durP2;ratioP2;P2;SDS_P1;SDS_P2;PMS_P1;PMS_P2;Temp;Humidity;BMP_temperature;BMP_pressure;BME280_temperature;BME280_humidity;BME280_pressure;Samples;Min_cycle;Max_cycle;Signal;HPM_P1;HPM_P2
2023/12/29 00:01:39;;;;;;;2.37;1.00;;;;;;;;;;4940741;28;20595;-67
2023/12/29 00:04:05;;;;;;;1.27;0.70;;;;;;;;;;4940080;28;20263;-67
2023/12/29 00:06:30;;;;;;;0.93;0.52;;;;;;;;;;4937888;28;20751;-67
2023/12/29 00:08:55;;;;;;;1.13;0.73;;;;;;;;;;4941692;28;20114;-67
2023/12/29 00:11:20;;;;;;;4.53;1.10;;;;;;;;;;4938167;28;20051;-67
2023/12/29 00:13:46;;;;;;;1.10;0.82;;;;;;;;;;4940719;28;20307;-67
2023/12/29 00:16:11;;;;;;;3.22;1.00;;;;;;;;;;4936114;28;20047;-67
2023/12/29 00:18:39;;;;;;;0.75;0.40;;;;;;;;;;4940948;28;20032;-67
2023/12/29 00:21:07;;;;;;;6.82;1.02;;;;;;;;;;4953018;28;20609;-67
2023/12/29 00:23:32;;;;;;;4.90;1.00;;;;;;;;;;4939055;28;20024;-67
2023/12/29 00:25:57;;;;;;;2.97;0.90;;;;;;;;;;4937335;28;20029;-67
2023/12/29 00:28:23;;;;;;;1.57;0.70;;;;;;;;;;4939713;28;20769;-67
2023/12/29 00:30:48;;;;;;;0.53;0.40;;;;;;;;;;4938804;28;20353;-67
2023/12/29 00:33:13;;;;;;;9.30;1.65;;;;;;;;;;4937250;28;20298;-67
2023/12/29 00:35:41;;;;;;;7.50;1.10;;;;;;;;;;4939888;28;20095;-67
2023/12/29 00:38:06;;;;;;;0.95;0.50;;;;;;;;;;4950695;28;20248;-67
2023/12/29 00:40:32;;;;;;;1.98;0.60;;;;;;;;;;4938867;28;20020;-67
2023/12/29 00:42:57;;;;;;;2.30;0.73;;;;;;;;;;4937625;28;20035;-67
2023/12/29 00:45:23;;;;;;;2.57;0.80;;;;;;;;;;4937783;28;20047;-67
2023/12/29 00:47:48;;;;;;;1.03;0.60;;;;;;;;;;4946399;28;20272;-67
2023/12/29 00:50:13;;;;;;;7.47;1.17;;;;;;;;;;4944849;28;20282;-68
2023/12/29 00:52:38;;;;;;;4.07;0.73;;;;;;;;;;4937710;28;20011;-68
2023/12/29 00:55:04;;;;;;;5.17;0.63;;;;;;;;;;4937264;28;20031;-68
2023/12/29 00:57:29;;;;;;;7.50;1.20;;;;;;;;;;4935646;28;20612;-68
2023/12/29 00:59:54;;;;;;;9.43;1.63;;;;;;;;;;4937693;28;20059;-68
2023/12/29 01:02:19;;;;;;;2.05;0.68;;;;;;;;;;4940278;28;20256;-68
2023/12/29 01:04:45;;;;;;;2.07;0.77;;;;;;;;;;4937198;28;20024;-68
2023/12/29 01:07:10;;;;;;;0.40;0.40;;;;;;;;;;4937556;28;20757;-68
2023/12/29 01:09:39;;;;;;;0.33;0.27;;;;;;;;;;4937430;28;20490;-68
2023/12/29 01:12:05;;;;;;;3.78;0.90;;;;;;;;;;4940940;28;20364;-68
2023/12/29 01:14:30;;;;;;;2.92;1.02;;;;;;;;;;4935664;28;20093;-68
2023/12/29 01:16:55;;;;;;;3.63;1.10;;;;;;;;;;4941344;28;20639;-68
2023/12/29 01:19:20;;;;;;;3.97;0.57;;;;;;;;;;4951805;28;20294;-68
2023/12/29 01:21:45;;;;;;;9.50;1.07;;;;;;;;;;4944384;28;20750;-68
2023/12/29 01:24:10;;;;;;;5.27;1.30;;;;;;;;;;4939492;28;20270;-68
2023/12/29 01:26:39;;;;;;;3.17;0.50;;;;;;;;;;4942202;28;20314;-68
2023/12/29 01:29:05;;;;;;;4.78;1.05;;;;;;;;;;4939327;28;21002;-68
2023/12/29 01:31:30;;;;;;;7.65;1.10;;;;;;;;;;4942455;28;20027;-68
2023/12/29 01:33:55;;;;;;;7.35;1.20;;;;;;;;;;4940245;28;20038;-68
2023/12/29 01:36:21;;;;;;;4.45;1.83;;;;;;;;;;4941835;28;20521;-68
2023/12/29 01:38:46;;;;;;;10.75;1.13;;;;;;;;;;4940963;28;20526;-68
2023/12/29 01:41:11;;;;;;;11.70;1.23;;;;;;;;;;4942826;28;20399;-68
2023/12/29 01:43:56;;;;;;;6.78;1.00;;;;;;;;;;4941799;28;20085;-68
2023/12/29 01:46:22;;;;;;;0.77;0.40;;;;;;;;;;4939853;28;20802;-68
2023/12/29 01:48:47;;;;;;;5.63;0.82;;;;;;;;;;4939373;28;20115;-68
2023/12/29 01:51:13;;;;;;;8.18;1.50;;;;;;;;;;4943088;28;20470;-68
2023/12/29 01:53:38;;;;;;;11.63;1.33;;;;;;;;;;4937527;28;20032;-68
2023/12/29 01:56:04;;;;;;;5.40;1.65;;;;;;;;;;4942251;28;20028;-68
2023/12/29 01:58:29;;;;;;;3.42;1.17;;;;;;;;;;4939364;28;20030;-68
2023/12/29 02:00:55;;;;;;;9.77;1.35;;;;;;;;;;4941313;28;20027;-68
2023/12/29 02:03:20;;;;;;;5.45;1.50;;;;;;;;;;4935494;28;20032;-68
2023/12/29 02:05:46;;;;;;;5.63;1.08;;;;;;;;;;4941656;28;20371;-68
2023/12/29 02:08:11;;;;;;;3.25;0.73;;;;;;;;;;4940532;28;20431;-68
2023/12/29 02:10:37;;;;;;;6.40;1.00;;;;;;;;;;4942438;28;20375;-68
2023/12/29 02:13:02;;;;;;;6.43;1.70;;;;;;;;;;4944554;28;20337;-68
2023/12/29 02:15:27;;;;;;;12.55;1.58;;;;;;;;;;4941004;28;20015;-68
2023/12/29 02:17:56;;;;;;;4.83;0.70;;;;;;;;;;4938263;28;20031;-68
2023/12/29 02:20:21;;;;;;;3.47;0.87;;;;;;;;;;4940683;28;20248;-68
2023/12/29 02:22:47;;;;;;;5.88;1.83;;;;;;;;;;4937261;28;20105;-68
2023/12/29 02:25:12;;;;;;;2.80;1.17;;;;;;;;;;4942438;28;20016;-68
2023/12/29 02:27:48;;;;;;;1.33;0.70;;;;;;;;;;4938644;28;20027;-68
2023/12/29 02:30:34;;;;;;;8.48;0.98;;;;;;;;;;4943149;28;20020;-68
2023/12/29 02:33:01;;;;;;;7.13;1.52;;;;;;;;;;4935365;28;20106;-68
2023/12/29 02:35:27;;;;;;;4.55;1.30;;;;;;;;;;4939061;28;20012;-68
2023/12/29 02:37:53;;;;;;;8.40;1.08;;;;;;;;;;4942306;28;20371;-68
2023/12/29 02:40:18;;;;;;;2.53;1.20;;;;;;;;;;4940497;28;20031;-68
2023/12/29 02:42:44;;;;;;;5.07;1.10;;;;;;;;;;4942641;28;20031;-68
2023/12/29 02:45:10;;;;;;;12.40;1.83;;;;;;;;;;4938833;28;20637;-68
2023/12/29 02:47:35;;;;;;;10.38;0.90;;;;;;;;;;4942279;28;20011;-68
2023/12/29 02:50:00;;;;;;;4.20;1.00;;;;;;;;;;4935893;28;20458;-68
2023/12/29 02:52:26;;;;;;;7.40;1.05;;;;;;;;;;4941239;28;20287;-68
2023/12/29 02:54:51;;;;;;;6.85;1.42;;;;;;;;;;4943554;28;20064;-68
2023/12/29 02:57:16;;;;;;;5.83;0.90;;;;;;;;;;4936931;28;20037;-68
2023/12/29 02:59:41;;;;;;;1.50;0.90;;;;;;;;;;4934296;28;20968;-68
2023/12/29 03:02:06;;;;;;;8.30;2.07;;;;;;;;;;4961385;28;20299;-68
2023/12/29 03:04:31;;;;;;;12.83;1.60;;;;;;;;;;4935644;28;20959;-68
2023/12/29 03:06:56;;;;;;;7.50;1.43;;;;;;;;;;4942032;28;20161;-68
2023/12/29 03:09:22;;;;;;;10.43;1.53;;;;;;;;;;4941804;28;20287;-68
2023/12/29 03:11:47;;;;;;;7.30;1.07;;;;;;;;;;4937193;28;20397;-68
2023/12/29 03:14:14;;;;;;;5.65;1.25;;;;;;;;;;4936563;28;20027;-68
2023/12/29 03:16:39;;;;;;;5.78;0.93;;;;;;;;;;4935545;28;20487;-68
2023/12/29 03:19:05;;;;;;;7.13;1.20;;;;;;;;;;4942441;28;20085;-68
2023/12/29 03:21:30;;;;;;;4.23;0.63;;;;;;;;;;4938935;28;20063;-68
2023/12/29 03:23:55;;;;;;;8.83;1.20;;;;;;;;;;4943580;28;20282;-68
2023/12/29 03:26:20;;;;;;;4.73;0.93;;;;;;;;;;4941380;28;20089;-69
2023/12/29 03:28:45;;;;;;;7.97;1.77;;;;;;;;;;4938211;28;20278;-68
2023/12/29 03:31:10;;;;;;;7.40;1.63;;;;;;;;;;4943171;28;20282;-68
2023/12/29 03:33:36;;;;;;;5.90;1.17;;;;;;;;;;4936401;28;20293;-68
2023/12/29 03:36:01;;;;;;;4.10;0.88;;;;;;;;;;4936133;28;20260;-68
2023/12/29 03:38:26;;;;;;;7.28;1.33;;;;;;;;;;4937038;28;20023;-68
2023/12/29 03:40:51;;;;;;;3.08;0.70;;;;;;;;;;4943672;28;20027;-68
2023/12/29 03:43:16;;;;;;;5.10;1.30;;;;;;;;;;4934520;28;20027;-68
2023/12/29 03:45:42;;;;;;;8.13;0.87;;;;;;;;;;4942077;28;20274;-68
2023/12/29 03:48:08;;;;;;;3.33;0.80;;;;;;;;;;4941539;28;20399;-68
2023/12/29 03:50:33;;;;;;;4.75;1.20;;;;;;;;;;4936650;28;20275;-69
2023/12/29 03:52:59;;;;;;;4.38;0.68;;;;;;;;;;4941313;28;20034;-69
2023/12/29 03:55:24;;;;;;;5.23;1.50;;;;;;;;;;4939001;28;20028;-68
2023/12/29 03:57:49;;;;;;;3.63;1.23;;;;;;;;;;4940489;28;20697;-68
2023/12/29 04:00:14;;;;;;;10.37;1.20;;;;;;;;;;4938558;28;20020;-68
2023/12/29 04:02:40;;;;;;;5.00;0.52;;;;;;;;;;4937027;28;20039;-68
2023/12/29 04:05:08;;;;;;;8.35;1.35;;;;;;;;;;4935418;28;20024;-68
2023/12/29 04:07:34;;;;;;;3.88;1.48;;;;;;;;;;4927888;28;20042;-68
2023/12/29 04:09:59;;;;;;;9.33;1.33;;;;;;;;;;4939648;28;20027;-68
2023/12/29 04:12:24;;;;;;;3.93;1.03;;;;;;;;;;4941014;28;20777;-68
2023/12/29 04:14:49;;;;;;;9.97;1.30;;;;;;;;;;4937546;28;20282;-68
2023/12/29 04:17:14;;;;;;;2.22;0.65;;;;;;;;;;4935727;28;20608;-68
2023/12/29 04:19:40;;;;;;;7.53;1.52;;;;;;;;;;4935472;28;20391;-68
2023/12/29 04:22:06;;;;;;;2.70;1.23;;;;;;;;;;4943536;28;20070;-68
2023/12/29 04:24:31;;;;;;;1.98;0.75;;;;;;;;;;4940703;28;20027;-68
2023/12/29 04:26:57;;;;;;;3.45;0.63;;;;;;;;;;4943080;28;20019;-68
2023/12/29 04:29:22;;;;;;;8.23;1.50;;;;;;;;;;4941648;28;20036;-68
2023/12/29 04:31:47;;;;;;;7.13;1.23;;;;;;;;;;4942451;28;20063;-68
2023/12/29 04:34:12;;;;;;;8.48;0.95;;;;;;;;;;4934547;28;20291;-68
2023/12/29 04:36:38;;;;;;;8.30;2.13;;;;;;;;;;4953324;28;20018;-68
2023/12/29 04:39:03;;;;;;;19.97;2.03;;;;;;;;;;4956313;28;20042;-68
2023/12/29 04:41:28;;;;;;;9.67;1.60;;;;;;;;;;4939957;28;20409;-68
2023/12/29 04:43:53;;;;;;;9.48;0.82;;;;;;;;;;4934329;29;20255;-68
2023/12/29 04:46:18;;;;;;;2.47;0.57;;;;;;;;;;4937596;29;20039;-68
2023/12/29 04:48:43;;;;;;;9.30;1.30;;;;;;;;;;4940725;28;20271;-68
2023/12/29 04:51:09;;;;;;;6.27;1.20;;;;;;;;;;4968961;28;20314;-68
2023/12/29 04:53:34;;;;;;;4.15;0.80;;;;;;;;;;4943812;29;20283;-68
2023/12/29 04:55:59;;;;;;;3.43;0.80;;;;;;;;;;4943380;28;20019;-68
2023/12/29 04:58:24;;;;;;;8.13;0.90;;;;;;;;;;4937863;29;20263;-68
2023/12/29 05:00:49;;;;;;;8.18;1.52;;;;;;;;;;4944607;29;20342;-68
2023/12/29 05:03:14;;;;;;;11.33;1.50;;;;;;;;;;4945752;29;20035;-68
2023/12/29 05:05:40;;;;;;;3.97;1.03;;;;;;;;;;4938176;28;20027;-68
2023/12/29 05:08:05;;;;;;;1.77;0.68;;;;;;;;;;4941998;28;20408;-68
2023/12/29 05:10:30;;;;;;;2.63;0.75;;;;;;;;;;4939782;28;20518;-68
2023/12/29 05:12:55;;;;;;;16.45;2.13;;;;;;;;;;4943287;29;20078;-68
2023/12/29 05:15:20;;;;;;;6.57;1.70;;;;;;;;;;4938259;29;20111;-69
2023/12/29 05:17:46;;;;;;;10.13;1.37;;;;;;;;;;4945088;29;20747;-69
2023/12/29 05:20:11;;;;;;;3.33;0.85;;;;;;;;;;4940367;29;20114;-67
2023/12/29 05:22:36;;;;;;;10.60;1.33;;;;;;;;;;4944025;28;20024;-67
2023/12/29 05:25:02;;;;;;;2.75;1.05;;;;;;;;;;4945915;28;20286;-67
2023/12/29 05:27:27;;;;;;;11.45;1.60;;;;;;;;;;4936138;28;20089;-67
2023/12/29 05:29:52;;;;;;;5.82;0.93;;;;;;;;;;4946812;28;20161;-67
2023/12/29 05:32:17;;;;;;;4.27;1.20;;;;;;;;;;4939618;28;20031;-67
2023/12/29 05:34:42;;;;;;;17.13;1.97;;;;;;;;;;4945000;29;20272;-67
2023/12/29 05:37:08;;;;;;;6.57;0.83;;;;;;;;;;4946221;29;20630;-67
2023/12/29 05:39:33;;;;;;;3.73;0.97;;;;;;;;;;4943709;29;20300;-67
2023/12/29 05:41:58;;;;;;;11.97;1.30;;;;;;;;;;4938538;28;20271;-67
2023/12/29 05:44:23;;;;;;;5.80;1.45;;;;;;;;;;4947513;28;20800;-67
2023/12/29 05:46:48;;;;;;;2.38;1.48;;;;;;;;;;4945242;29;20038;-67
2023/12/29 05:49:14;;;;;;;9.80;1.67;;;;;;;;;;4945777;28;20027;-67
2023/12/29 05:51:39;;;;;;;7.40;1.50;;;;;;;;;;4939688;28;20035;-67
2023/12/29 05:54:04;;;;;;;3.00;0.60;;;;;;;;;;4940667;29;20325;-67
2023/12/29 05:56:29;;;;;;;6.70;1.48;;;;;;;;;;4935964;28;20103;-67
2023/12/29 05:58:54;;;;;;;9.77;1.60;;;;;;;;;;4938104;28;20406;-67
2023/12/29 06:01:19;;;;;;;3.73;0.70;;;;;;;;;;4942291;28;20256;-67
2023/12/29 06:03:45;;;;;;;3.88;1.35;;;;;;;;;;4944641;29;20321;-67
2023/12/29 06:06:10;;;;;;;4.13;0.87;;;;;;;;;;4945940;29;20498;-67
2023/12/29 06:08:35;;;;;;;3.60;1.35;;;;;;;;;;4943277;29;20262;-67
2023/12/29 06:11:00;;;;;;;8.38;1.30;;;;;;;;;;4944569;29;20056;-67
2023/12/29 06:13:25;;;;;;;4.45;1.42;;;;;;;;;;4939284;28;20028;-67
2023/12/29 06:15:51;;;;;;;6.85;1.40;;;;;;;;;;4946489;28;20550;-67
2023/12/29 06:18:16;;;;;;;5.47;0.57;;;;;;;;;;4946101;28;20085;-67
2023/12/29 06:20:41;;;;;;;11.43;0.93;;;;;;;;;;4940967;28;20032;-67
2023/12/29 06:23:06;;;;;;;5.97;1.15;;;;;;;;;;4941979;28;20302;-67
2023/12/29 06:25:32;;;;;;;5.85;1.08;;;;;;;;;;4943767;28;20074;-67
2023/12/29 06:27:58;;;;;;;2.80;1.27;;;;;;;;;;4937642;28;20073;-67
2023/12/29 06:30:23;;;;;;;7.33;1.47;;;;;;;;;;4945024;28;20032;-67
2023/12/29 06:32:48;;;;;;;12.75;1.00;;;;;;;;;;4935187;28;20961;-67
2023/12/29 06:35:14;;;;;;;8.20;0.77;;;;;;;;;;4943621;28;20050;-67
2023/12/29 06:37:39;;;;;;;2.95;0.82;;;;;;;;;;4943342;28;20034;-67
2023/12/29 06:40:06;;;;;;;10.25;1.20;;;;;;;;;;4945834;28;20020;-67
2023/12/29 06:42:31;;;;;;;5.40;1.17;;;;;;;;;;4943641;28;20020;-67
2023/12/29 06:44:56;;;;;;;8.80;0.80;;;;;;;;;;4942149;28;20038;-67
2023/12/29 06:47:22;;;;;;;4.77;0.73;;;;;;;;;;4936817;28;20780;-67
2023/12/29 06:49:47;;;;;;;3.42;0.63;;;;;;;;;;4941040;28;20305;-67
2023/12/29 06:52:12;;;;;;;4.57;1.05;;;;;;;;;;4945648;28;20023;-67
2023/12/29 06:54:37;;;;;;;8.70;1.20;;;;;;;;;;4942804;28;20024;-67
2023/12/29 06:57:03;;;;;;;9.63;1.10;;;;;;;;;;4936939;28;20271;-67
2023/12/29 06:59:28;;;;;;;2.20;0.73;;;;;;;;;;4941492;28;20266;-67
2023/12/29 07:01:53;;;;;;;4.33;1.20;;;;;;;;;;4933531;28;20509;-67
2023/12/29 07:04:18;;;;;;;5.47;1.10;;;;;;;;;;4941158;28;20267;-67
2023/12/29 07:06:43;;;;;;;7.77;1.50;;;;;;;;;;4943546;28;20299;-67
2023/12/29 07:09:09;;;;;;;6.00;0.97;;;;;;;;;;4945605;29;20266;-67
2023/12/29 07:11:34;;;;;;;4.13;1.10;;;;;;;;;;4937662;28;20330;-67
2023/12/29 07:14:00;;;;;;;2.28;0.80;;;;;;;;;;4942561;28;20054;-67
2023/12/29 07:16:25;;;;;;;1.35;0.60;;;;;;;;;;4947405;28;20054;-67
2023/12/29 07:18:50;;;;;;;1.55;0.82;;;;;;;;;;4945438;29;20102;-67
2023/12/29 07:21:16;;;;;;;5.43;1.98;;;;;;;;;;4945226;28;20051;-67
2023/12/29 07:23:41;;;;;;;9.20;1.25;;;;;;;;;;4943812;29;20036;-67
2023/12/29 07:26:07;;;;;;;10.20;1.02;;;;;;;;;;4941046;28;20042;-67
2023/12/29 07:28:32;;;;;;;7.40;1.45;;;;;;;;;;4944748;28;20048;-67
2023/12/29 07:30:57;;;;;;;8.32;0.70;;;;;;;;;;4936851;28;20114;-67
2023/12/29 07:33:23;;;;;;;2.78;0.70;;;;;;;;;;4928427;28;20475;-67
2023/12/29 07:35:49;;;;;;;5.20;1.00;;;;;;;;;;4928427;28;20035;-67
2023/12/29 07:38:14;;;;;;;3.70;1.17;;;;;;;;;;4928028;29;20016;-67
2023/12/29 07:40:39;;;;;;;4.90;1.20;;;;;;;;;;4934850;29;20406;-67
2023/12/29 07:43:04;;;;;;;6.93;0.87;;;;;;;;;;4941061;29;20366;-67
2023/12/29 07:45:29;;;;;;;5.30;0.90;;;;;;;;;;4935016;29;20267;-67
2023/12/29 07:47:55;;;;;;;3.57;0.90;;;;;;;;;;4933750;28;20347;-67
2023/12/29 07:50:20;;;;;;;4.72;0.90;;;;;;;;;;4935892;28;20350;-67
2023/12/29 07:52:45;;;;;;;4.17;0.90;;;;;;;;;;4927825;29;20039;-67
2023/12/29 07:55:10;;;;;;;3.80;1.17;;;;;;;;;;4932875;28;21168;-67
2023/12/29 07:57:36;;;;;;;10.97;1.13;;;;;;;;;;4937620;28;20818;-69
2023/12/29 08:00:02;;;;;;;7.67;1.63;;;;;;;;;;4927616;28;20256;-67
2023/12/29 08:02:27;;;;;;;9.43;1.15;;;;;;;;;;4927956;29;20260;-70
2023/12/29 08:04:54;;;;;;;3.50;0.77;;;;;;;;;;4928674;28;20035;-67
2023/12/29 08:07:19;;;;;;;4.75;0.90;;;;;;;;;;4927537;28;20271;-66
2023/12/29 08:09:44;;;;;;;2.85;1.10;;;;;;;;;;4942800;28;20026;-66
2023/12/29 08:12:10;;;;;;;3.20;1.00;;;;;;;;;;4935410;28;20032;-66
2023/12/29 08:14:35;;;;;;;2.47;0.93;;;;;;;;;;4933631;28;20031;-66
2023/12/29 08:17:00;;;;;;;3.05;0.80;;;;;;;;;;4928320;28;20144;-66
2023/12/29 08:19:25;;;;;;;7.40;1.20;;;;;;;;;;4929617;29;20016;-69
2023/12/29 08:21:50;;;;;;;2.20;1.10;;;;;;;;;;4945035;29;20794;-69
2023/12/29 08:24:16;;;;;;;14.40;1.30;;;;;;;;;;4940986;28;20266;-69
2023/12/29 08:26:43;;;;;;;4.25;1.02;;;;;;;;;;4944204;28;21110;-69
2023/12/29 08:29:09;;;;;;;6.85;0.95;;;;;;;;;;4946128;28;20034;-69
2023/12/29 08:31:34;;;;;;;4.00;0.83;;;;;;;;;;4936654;28;20015;-69
2023/12/29 08:33:59;;;;;;;8.30;1.33;;;;;;;;;;4941138;29;20325;-69
2023/12/29 08:36:24;;;;;;;9.90;1.60;;;;;;;;;;4943170;29;20036;-67
2023/12/29 08:38:49;;;;;;;8.83;1.40;;;;;;;;;;4947808;28;20254;-67
2023/12/29 08:41:15;;;;;;;6.78;1.60;;;;;;;;;;4947665;29;20250;-67
2023/12/29 08:43:40;;;;;;;7.00;1.15;;;;;;;;;;4944257;28;20029;-67
2023/12/29 08:46:05;;;;;;;8.23;1.33;;;;;;;;;;4942139;28;20045;-67
2023/12/29 08:48:30;;;;;;;10.37;1.43;;;;;;;;;;4944560;29;20268;-67
2023/12/29 08:50:55;;;;;;;5.20;1.40;;;;;;;;;;4948434;29;20290;-66
2023/12/29 08:53:21;;;;;;;11.23;2.38;;;;;;;;;;4944408;29;20107;-66
2023/12/29 08:55:46;;;;;;;10.60;3.07;;;;;;;;;;4941012;29;20085;-66
2023/12/29 08:58:12;;;;;;;8.43;1.70;;;;;;;;;;4948016;29;20259;-66
2023/12/29 09:00:37;;;;;;;7.05;2.30;;;;;;;;;;4939160;28;20651;-68
2023/12/29 09:03:02;;;;;;;11.43;1.53;;;;;;;;;;4951605;28;20035;-67
2023/12/29 09:05:28;;;;;;;7.90;1.00;;;;;;;;;;4946633;28;20263;-68
2023/12/29 09:07:53;;;;;;;10.47;1.87;;;;;;;;;;4944927;28;20035;-67
2023/12/29 09:10:18;;;;;;;4.23;1.10;;;;;;;;;;4938576;28;20278;-67
2023/12/29 09:12:43;;;;;;;8.05;1.33;;;;;;;;;;4946896;29;20294;-67
2023/12/29 09:15:09;;;;;;;19.33;1.58;;;;;;;;;;4941673;29;20016;-67
2023/12/29 09:17:34;;;;;;;5.30;1.63;;;;;;;;;;4944533;28;20065;-68
2023/12/29 09:19:59;;;;;;;11.87;1.63;;;;;;;;;;4950501;28;20026;-67
2023/12/29 09:22:24;;;;;;;4.65;1.23;;;;;;;;;;4947117;29;20813;-66
2023/12/29 09:24:50;;;;;;;9.80;1.90;;;;;;;;;;4946400;29;20479;-66
2023/12/29 09:27:15;;;;;;;9.57;2.53;;;;;;;;;;4947450;29;20270;-68
2023/12/29 09:29:41;;;;;;;7.82;2.13;;;;;;;;;;4943894;28;20268;-66
2023/12/29 09:32:06;;;;;;;9.57;2.50;;;;;;;;;;4943248;28;20472;-66
2023/12/29 09:34:31;;;;;;;12.90;3.27;;;;;;;;;;4937248;28;20067;-65
2023/12/29 09:36:56;;;;;;;8.83;2.17;;;;;;;;;;4932358;28;20256;-66
2023/12/29 09:39:22;;;;;;;14.07;1.70;;;;;;;;;;4933391;28;20630;-65
2023/12/29 09:41:51;;;;;;;4.40;1.40;;;;;;;;;;4936983;28;20292;-65
2023/12/29 09:44:19;;;;;;;7.50;1.73;;;;;;;;;;4937158;28;20290;-65
2023/12/29 09:46:48;;;;;;;12.05;2.08;;;;;;;;;;4937441;28;20379;-66
2023/12/29 09:49:14;;;;;;;7.38;1.45;;;;;;;;;;4936321;28;20020;-65
2023/12/29 09:51:40;;;;;;;5.88;1.65;;;;;;;;;;4938333;28;20103;-65
2023/12/29 09:54:05;;;;;;;7.25;1.63;;;;;;;;;;4940872;29;20150;-66
2023/12/29 09:56:31;;;;;;;6.30;1.58;;;;;;;;;;4945765;28;20103;-65
2023/12/29 09:58:57;;;;;;;9.88;1.20;;;;;;;;;;4947969;28;20085;-67
2023/12/29 10:01:23;;;;;;;5.78;2.13;;;;;;;;;;4934248;28;20032;-66
2023/12/29 10:03:51;;;;;;;6.22;0.68;;;;;;;;;;4965849;28;20030;-66
2023/12/29 10:06:19;;;;;;;11.90;1.23;;;;;;;;;;4946809;28;20030;-65
2023/12/29 10:08:45;;;;;;;1.27;0.38;;;;;;;;;;4941066;29;20487;-65
2023/12/29 10:11:11;;;;;;;14.57;1.60;;;;;;;;;;4947770;28;20069;-66
2023/12/29 10:13:38;;;;;;;8.65;1.30;;;;;;;;;;4942485;28;20478;-66
2023/12/29 10:16:07;;;;;;;11.30;1.13;;;;;;;;;;4939764;28;20088;-65
2023/12/29 10:18:38;;;;;;;5.68;1.33;;;;;;;;;;4944377;29;20561;-66
2023/12/29 10:21:12;;;;;;;3.08;1.02;;;;;;;;;;4946331;28;20497;-66
2023/12/29 10:23:43;;;;;;;4.88;0.90;;;;;;;;;;4950111;28;20046;-66
2023/12/29 10:26:10;;;;;;;5.78;0.85;;;;;;;;;;4945262;28;20016;-68
2023/12/29 10:28:35;;;;;;;4.50;1.27;;;;;;;;;;4936040;28;20518;-68
2023/12/29 10:31:01;;;;;;;2.63;0.85;;;;;;;;;;4933972;28;20062;-66
2023/12/29 10:33:26;;;;;;;4.07;1.00;;;;;;;;;;4933405;28;20039;-65
2023/12/29 10:36:02;;;;;;;1.43;0.60;;;;;;;;;;4939209;28;20046;-65
2023/12/29 10:38:28;;;;;;;11.20;1.88;;;;;;;;;;4937584;28;20262;-65
2023/12/29 10:40:53;;;;;;;6.43;0.65;;;;;;;;;;4941440;28;20016;-66
2023/12/29 10:43:21;;;;;;;1.33;0.53;;;;;;;;;;4942067;28;20042;-65
2023/12/29 10:45:47;;;;;;;1.02;0.57;;;;;;;;;;4946053;28;20260;-65
2023/12/29 10:48:20;;;;;;;4.05;0.65;;;;;;;;;;4938215;29;20172;-66
2023/12/29 10:50:46;;;;;;;0.85;0.40;;;;;;;;;;4944317;28;20115;-65
2023/12/29 10:53:16;;;;;;;1.20;0.40;;;;;;;;;;4967979;28;20165;-65
2023/12/29 10:55:41;;;;;;;1.88;0.68;;;;;;;;;;4931737;28;21500;-66
2023/12/29 10:58:07;;;;;;;1.10;0.30;;;;;;;;;;4936877;28;20035;-65
2023/12/29 11:00:35;;;;;;;4.63;0.60;;;;;;;;;;4946003;28;20256;-68
2023/12/29 11:03:00;;;;;;;0.40;0.40;;;;;;;;;;4945517;28;20030;-66
2023/12/29 11:05:25;;;;;;;1.95;0.38;;;;;;;;;;4930150;28;20028;-65
2023/12/29 11:07:53;;;;;;;1.83;0.40;;;;;;;;;;4933318;28;20103;-65
2023/12/29 11:10:19;;;;;;;2.00;0.30;;;;;;;;;;4939707;28;20490;-65
2023/12/29 11:12:45;;;;;;;1.15;0.35;;;;;;;;;;4949307;28;20093;-65
2023/12/29 11:15:13;;;;;;;3.50;0.30;;;;;;;;;;4943617;28;20107;-65
2023/12/29 11:17:38;;;;;;;1.02;0.60;;;;;;;;;;4942827;28;20027;-65
2023/12/29 11:20:03;;;;;;;1.40;0.40;;;;;;;;;;4940511;28;20039;-68
2023/12/29 11:22:30;;;;;;;1.83;0.95;;;;;;;;;;4938119;28;20031;-68
2023/12/29 11:24:58;;;;;;;1.17;0.57;;;;;;;;;;4938687;28;20102;-68
2023/12/29 11:27:24;;;;;;;3.50;0.40;;;;;;;;;;4933552;28;20099;-65
2023/12/29 11:29:49;;;;;;;1.98;0.32;;;;;;;;;;4937338;28;20066;-65
2023/12/29 11:32:18;;;;;;;4.13;0.60;;;;;;;;;;4947134;28;20027;-66
2023/12/29 11:34:48;;;;;;;1.85;0.70;;;;;;;;;;4940547;28;20347;-65
2023/12/29 11:37:35;;;;;;;6.03;1.00;;;;;;;;;;4947074;28;20359;-65
2023/12/29 11:40:19;;;;;;;11.57;1.00;;;;;;;;;;4935353;29;20023;-66
2023/12/29 11:42:45;;;;;;;1.45;0.30;;;;;;;;;;4953313;28;20112;-65
2023/12/29 11:45:24;;;;;;;0.80;0.30;;;;;;;;;;4940200;28;20024;-65
2023/12/29 11:47:53;;;;;;;0.98;0.38;;;;;;;;;;4938169;29;20045;-65
2023/12/29 11:50:26;;;;;;;1.52;0.43;;;;;;;;;;4944843;29;20019;-66
2023/12/29 11:52:52;;;;;;;1.23;0.30;;;;;;;;;;4944206;28;20032;-65
2023/12/29 11:55:20;;;;;;;1.55;0.47;;;;;;;;;;4936273;29;20023;-66
2023/12/29 11:57:45;;;;;;;1.40;0.45;;;;;;;;;;4929838;28;20018;-65
2023/12/29 12:00:11;;;;;;;4.43;0.82;;;;;;;;;;4940822;28;20030;-68
2023/12/29 12:02:36;;;;;;;1.45;0.38;;;;;;;;;;4939750;28;20024;-68
2023/12/29 12:05:02;;;;;;;3.15;0.60;;;;;;;;;;4937705;28;20031;-68
2023/12/29 12:07:33;;;;;;;1.23;0.50;;;;;;;;;;4943502;29;20054;-68
2023/12/29 12:10:17;;;;;;;2.72;0.70;;;;;;;;;;4940629;29;20034;-68
2023/12/29 12:12:42;;;;;;;0.60;0.32;;;;;;;;;;4942384;28;20037;-65
2023/12/29 12:15:26;;;;;;;2.00;0.60;;;;;;;;;;4942599;28;20016;-65
2023/12/29 12:17:51;;;;;;;0.38;0.20;;;;;;;;;;4945898;28;20518;-66
2023/12/29 12:20:17;;;;;;;2.30;0.68;;;;;;;;;;4941021;28;20107;-68
2023/12/29 12:22:43;;;;;;;1.80;0.77;;;;;;;;;;4945055;29;20494;-65
2023/12/29 12:25:11;;;;;;;0.88;0.60;;;;;;;;;;4947069;28;20043;-68
2023/12/29 12:27:37;;;;;;;0.60;0.30;;;;;;;;;;4941243;28;20026;-66
2023/12/29 12:30:02;;;;;;;3.63;0.80;;;;;;;;;;4946817;28;20064;-66
2023/12/29 12:32:28;;;;;;;0.57;0.30;;;;;;;;;;4943455;29;20109;-66
2023/12/29 12:34:53;;;;;;;0.38;0.35;;;;;;;;;;4946804;29;20035;-66
2023/12/29 12:37:19;;;;;;;0.43;0.30;;;;;;;;;;4946424;29;20482;-65
2023/12/29 12:39:45;;;;;;;2.30;0.50;;;;;;;;;;4945708;28;20566;-66
2023/12/29 12:42:10;;;;;;;0.68;0.43;;;;;;;;;;4939752;28;20114;-66
2023/12/29 12:44:39;;;;;;;0.77;0.40;;;;;;;;;;4939050;28;20119;-65
2023/12/29 12:47:07;;;;;;;2.30;0.52;;;;;;;;;;4946314;28;20019;-65
2023/12/29 12:49:33;;;;;;;2.25;0.43;;;;;;;;;;4945535;28;20023;-65
2023/12/29 12:51:58;;;;;;;2.22;0.43;;;;;;;;;;4946542;28;20032;-66
2023/12/29 12:54:23;;;;;;;3.50;0.68;;;;;;;;;;4943744;28;20020;-66
2023/12/29 12:56:48;;;;;;;0.90;0.40;;;;;;;;;;4997489;28;21536;-66
2023/12/29 12:59:14;;;;;;;2.30;0.60;;;;;;;;;;4939452;28;20077;-65
2023/12/29 13:01:39;;;;;;;0.20;0.20;;;;;;;;;;4941312;28;20055;-65
2023/12/29 13:04:05;;;;;;;3.05;0.52;;;;;;;;;;4942605;28;20081;-66
2023/12/29 13:06:33;;;;;;;2.85;0.40;;;;;;;;;;4945385;28;20027;-66
2023/12/29 13:09:00;;;;;;;0.70;0.50;;;;;;;;;;4944271;28;20023;-65
2023/12/29 13:11:25;;;;;;;2.92;0.40;;;;;;;;;;5013313;28;20021;-67
2023/12/29 13:13:56;;;;;;;0.80;0.45;;;;;;;;;;4980821;28;20692;-67
2023/12/29 13:16:39;;;;;;;1.45;0.85;;;;;;;;;;4949673;28;20027;-67
2023/12/29 13:19:24;;;;;;;0.50;0.22;;;;;;;;;;4932833;28;20019;-66
2023/12/29 13:21:51;;;;;;;1.17;0.50;;;;;;;;;;4948300;28;20494;-67
2023/12/29 13:24:16;;;;;;;4.47;0.40;;;;;;;;;;4971437;28;20455;-66
2023/12/29 13:26:44;;;;;;;2.75;0.57;;;;;;;;;;5000009;28;20021;-67
2023/12/29 13:29:09;;;;;;;1.65;0.70;;;;;;;;;;4947307;28;20394;-67
2023/12/29 13:31:35;;;;;;;0.25;0.25;;;;;;;;;;4948920;28;20020;-67
2023/12/29 13:34:06;;;;;;;4.05;0.28;;;;;;;;;;4942249;28;20031;-67
2023/12/29 13:36:52;;;;;;;4.15;0.75;;;;;;;;;;4980111;28;20067;-67
2023/12/29 13:39:22;;;;;;;0.50;0.30;;;;;;;;;;4972783;28;20070;-66
2023/12/29 13:41:48;;;;;;;0.85;0.40;;;;;;;;;;4949203;28;20058;-67
2023/12/29 13:44:13;;;;;;;5.50;0.45;;;;;;;;;;4936574;28;20051;-66
2023/12/29 13:46:39;;;;;;;2.88;0.57;;;;;;;;;;4947146;29;20034;-66
2023/12/29 13:49:04;;;;;;;1.23;0.52;;;;;;;;;;4980907;28;20393;-67
2023/12/29 13:51:30;;;;;;;1.00;0.43;;;;;;;;;;4974313;28;20017;-66
2023/12/29 13:54:02;;;;;;;0.98;0.30;;;;;;;;;;5007224;28;20078;-66
2023/12/29 13:56:27;;;;;;;0.32;0.30;;;;;;;;;;4949193;28;20023;-67
2023/12/29 13:58:52;;;;;;;2.13;0.40;;;;;;;;;;4942391;28;20031;-66
2023/12/29 14:01:17;;;;;;;1.63;0.53;;;;;;;;;;4942828;28;20019;-66
2023/12/29 14:03:47;;;;;;;1.08;0.38;;;;;;;;;;4947948;29;20251;-67
2023/12/29 14:06:18;;;;;;;1.35;0.50;;;;;;;;;;4995641;28;20029;-66
2023/12/29 14:08:47;;;;;;;2.65;0.85;;;;;;;;;;4981622;28;20066;-67
2023/12/29 14:11:12;;;;;;;0.55;0.55;;;;;;;;;;4949615;29;20080;-67
2023/12/29 14:13:43;;;;;;;1.85;0.30;;;;;;;;;;4943757;29;20019;-67
2023/12/29 14:16:09;;;;;;;2.95;0.47;;;;;;;;;;4947282;28;20386;-67
2023/12/29 14:18:34;;;;;;;0.77;0.38;;;;;;;;;;4940274;28;20024;-67
2023/12/29 14:20:59;;;;;;;0.95;0.57;;;;;;;;;;5011119;28;20057;-67
2023/12/29 14:23:25;;;;;;;0.40;0.30;;;;;;;;;;4991394;28;20081;-67
2023/12/29 14:25:50;;;;;;;1.45;0.47;;;;;;;;;;4948993;29;20042;-67
2023/12/29 14:28:16;;;;;;;1.03;0.40;;;;;;;;;;4939976;28;20101;-68
2023/12/29 14:30:41;;;;;;;0.85;0.30;;;;;;;;;;4947707;29;20263;-67
2023/12/29 14:33:07;;;;;;;0.60;0.40;;;;;;;;;;4958035;28;20028;-67
2023/12/29 14:35:32;;;;;;;1.08;0.40;;;;;;;;;;5013255;28;20100;-67